Time;durP1;ratioP1;P1;durP2;ratioP2;P2;SDS_P1;SDS_P2;PMS_P1;PMS_P2;Temp;Humidity;BMP_temperature;BMP_pressure;BME280_temperature;BME280_humidity;BME280_pressure;Samples;Min_cycle;Max_cycle;Signal;HPM_P1;HPM_P2
2021/08/11 00:00:48;;;;;;;;;;;;;;;26.75;43.24;97603.72;5048898;28;1365;-49
2021/08/11 00:03:13;;;;;;;;;;;;;;;26.72;43.60;97598.69;5049421;28;1104;-49
2021/08/11 00:05:41;;;;;;;;;;;;;;;26.67;43.51;97603.50;5048423;28;1568;-48
2021/08/11 00:08:06;;;;;;;;;;;;;;;26.73;43.58;97600.34;5047744;28;1906;-49
2021/08/11 00:10:31;;;;;;;;;;;;;;;26.72;43.34;97601.31;5049896;28;1298;-49
2021/08/11 00:12:56;;;;;;;;;;;;;;;26.79;43.36;97606.97;5047764;28;1730;-48
2021/08/11 00:15:21;;;;;;;;;;;;;;;26.70;43.39;97609.41;5044947;28;1643;-49
2021/08/11 00:17:47;;;;;;;;;;;;;;;26.72;43.36;97606.63;5047780;28;1187;-50
2021/08/11 00:20:12;;;;;;;;;;;;;;;26.72;43.46;97603.97;5049424;28;1217;-49
2021/08/11 00:22:37;;;;;;;;;;;;;;;26.78;43.50;97603.47;5049438;28;1183;-50
2021/08/11 00:25:03;;;;;;;;;;;;;;;26.70;43.36;97616.47;5043972;28;1610;-50
2021/08/11 00:27:28;;;;;;;;;;;;;;;26.66;43.55;97615.06;5043932;28;1902;-49
2021/08/11 00:29:53;;;;;;;;;;;;;;;26.75;43.50;97616.94;5045959;28;1377;-50
2021/08/11 00:32:18;;;;;;;;;;;;;;;26.72;43.40;97614.56;5049012;28;1211;-48
2021/08/11 00:34:43;;;;;;;;;;;;;;;26.79;43.17;97610.44;5047390;28;1737;-49
2021/08/11 00:37:09;;;;;;;;;;;;;;;26.74;43.21;97614.41;5043134;28;1603;-49
2021/08/11 00:39:34;;;;;;;;;;;;;;;26.78;43.18;97619.34;5047833;28;1289;-50
2021/08/11 00:41:59;;;;;;;;;;;;;;;26.79;43.13;97620.19;5043243;28;1666;-49
2021/08/11 00:44:24;;;;;;;;;;;;;;;26.72;43.62;97622.50;5048786;28;1651;-50
2021/08/11 00:46:50;;;;;;;;;;;;;;;26.79;43.12;97628.97;5048566;28;1910;-49
2021/08/11 00:49:16;;;;;;;;;;;;;;;26.67;43.40;97628.16;5052001;28;1260;-49
2021/08/11 00:51:41;;;;;;;;;;;;;;;26.66;43.31;97634.41;5047107;28;1167;-50
2021/08/11 00:54:07;;;;;;;;;;;;;;;26.69;43.36;97630.66;5049931;28;2388;-50
2021/08/11 00:56:32;;;;;;;;;;;;;;;26.75;43.24;97630.16;5048418;28;1554;-49
2021/08/11 00:58:57;;;;;;;;;;;;;;;26.71;43.40;97621.66;5034647;28;1269;-49
2021/08/11 01:01:22;;;;;;;;;;;;;;;26.67;43.48;97625.50;5043959;28;1341;-48
2021/08/11 01:03:47;;;;;;;;;;;;;;;26.72;43.60;97619.84;5034659;28;1132;-49
2021/08/11 01:06:13;;;;;;;;;;;;;;;26.71;43.33;97626.09;5050232;28;1613;-50
2021/08/11 01:08:38;;;;;;;;;;;;;;;26.70;43.49;97627.03;5042941;28;1906;-50
2021/08/11 01:11:03;;;;;;;;;;;;;;;26.68;43.48;97627.19;5042836;28;1544;-49
2021/08/11 01:13:28;;;;;;;;;;;;;;;26.71;43.47;97629.59;5037802;28;1828;-50
2021/08/11 01:15:54;;;;;;;;;;;;;;;26.66;43.78;97628.28;5047850;28;1143;-49
2021/08/11 01:18:19;;;;;;;;;;;;;;;26.73;43.29;97634.75;5049625;28;1686;-50
2021/08/11 01:21:02;;;;;;;;;;;;;;;26.72;43.52;97635.72;5044846;28;1535;-49
2021/08/11 01:23:29;;;;;;;;;;;;;;;26.75;43.45;97632.81;5046490;28;1085;-49
2021/08/11 01:25:57;;;;;;;;;;;;;;;26.68;43.35;97639.56;5049029;28;1506;-49
2021/08/11 01:28:25;;;;;;;;;;;;;;;26.85;43.22;97635.53;5044091;28;1902;-48
2021/08/11 01:31:09;;;;;;;;;;;;;;;26.73;43.18;97640.03;5087277;22;1736;-51
2021/08/11 01:33:46;;;;;;;;;;;;;;;26.72;43.50;97627.78;5067933;28;1049;-51
2021/08/11 01:36:32;;;;;;;;;;;;;;;26.69;43.28;97628.84;5063230;28;1625;-51
2021/08/11 01:39:07;;;;;;;;;;;;;;;26.71;43.30;97628.75;5034820;28;1446;-51
2021/08/11 01:41:34;;;;;;;;;;;;;;;26.80;43.14;97628.00;5060184;28;1601;-51
2021/08/11 01:43:59;;;;;;;;;;;;;;;26.77;43.32;97630.88;5071163;28;1132;-51
2021/08/11 01:46:24;;;;;;;;;;;;;;;26.70;43.57;97624.41;5060706;28;1065;-51
2021/08/11 01:48:49;;;;;;;;;;;;;;;26.61;43.45;97628.66;5060030;28;1906;-51
2021/08/11 01:51:15;;;;;;;;;;;;;;;26.67;43.47;97620.22;5071246;28;1283;-53
2021/08/11 01:53:40;;;;;;;;;;;;;;;26.79;43.02;97630.78;5069968;28;1425;-51
2021/08/11 01:56:05;;;;;;;;;;;;;;;26.75;43.39;97626.69;5062635;28;1265;-51
2021/08/11 01:58:31;;;;;;;;;;;;;;;26.63;43.49;97623.25;5060241;28;2001;-51
2021/08/11 02:00:57;;;;;;;;;;;;;;;26.79;43.04;97623.66;5072058;28;1374;-51
2021/08/11 02:03:22;;;;;;;;;;;;;;;26.69;43.34;97625.38;5061578;28;1207;-51
2021/08/11 02:05:51;;;;;;;;;;;;;;;26.76;43.14;97626.56;5055831;28;1703;-51
2021/08/11 02:08:16;;;;;;;;;;;;;;;26.79;43.32;97631.59;5061571;28;1898;-51
2021/08/11 02:10:42;;;;;;;;;;;;;;;26.70;43.24;97629.69;5058758;28;1313;-51
2021/08/11 02:13:08;;;;;;;;;;;;;;;26.69;43.23;97631.50;5069656;28;1524;-51
2021/08/11 02:15:33;;;;;;;;;;;;;;;26.73;43.50;97629.47;5070087;28;1488;-50
2021/08/11 02:17:58;;;;;;;;;;;;;;;26.69;43.57;97633.31;5070197;28;1319;-51
2021/08/11 02:20:24;;;;;;;;;;;;;;;26.65;43.44;97639.81;5068395;28;1646;-51
2021/08/11 02:22:49;;;;;;;;;;;;;;;26.63;43.59;97631.19;5070187;28;1296;-51
2021/08/11 02:25:14;;;;;;;;;;;;;;;26.65;43.42;97630.09;5071065;28;1159;-51
2021/08/11 02:27:49;;;;;;;;;;;;;;;26.68;43.50;97631.63;5069609;28;1949;-51
2021/08/11 02:30:15;;;;;;;;;;;;;;;26.73;43.18;97629.47;5059541;28;1395;-52
2021/08/11 02:32:59;;;;;;;;;;;;;;;26.69;43.46;97633.31;5059089;28;1259;-54
2021/08/11 02:35:31;;;;;;;;;;;;;;;26.68;43.45;97639.56;5060552;28;1173;-53
2021/08/11 02:38:02;;;;;;;;;;;;;;;26.64;43.51;97632.88;5056180;28;1578;-54
2021/08/11 02:40:35;;;;;;;;;;;;;;;26.68;43.55;97635.13;5070841;28;1374;-54
2021/08/11 02:43:19;;;;;;;;;;;;;;;26.61;43.83;97635.75;5065638;28;1537;-54
2021/08/11 02:45:45;;;;;;;;;;;;;;;26.65;43.36;97634.53;5070251;28;1139;-54
2021/08/11 02:48:10;;;;;;;;;;;;;;;26.73;43.24;97642.69;5060150;28;1906;-54
2021/08/11 02:50:36;;;;;;;;;;;;;;;26.66;43.25;97639.69;5068263;28;1802;-54
2021/08/11 02:53:01;;;;;;;;;;;;;;;26.68;43.57;97643.06;5058398;28;1679;-54
2021/08/11 02:55:26;;;;;;;;;;;;;;;26.69;43.28;97641.25;5060128;28;1199;-54
2021/08/11 02:57:51;;;;;;;;;;;;;;;26.68;43.50;97652.78;5056266;28;1542;-51
2021/08/11 03:00:17;;;;;;;;;;;;;;;26.66;43.59;97655.56;5069684;28;1662;-51
2021/08/11 03:02:42;;;;;;;;;;;;;;;26.69;43.56;97651.81;5068903;28;1144;-51
2021/08/11 03:05:07;;;;;;;;;;;;;;;26.64;43.77;97654.03;5057568;28;1570;-51
2021/08/11 03:07:33;;;;;;;;;;;;;;;26.70;43.56;97657.00;5070259;28;1989;-51
2021/08/11 03:09:58;;;;;;;;;;;;;;;26.70;43.20;97656.16;5069549;28;1279;-51
2021/08/11 03:12:23;;;;;;;;;;;;;;;26.73;43.25;97653.28;5066768;28;1620;-51
2021/08/11 03:14:48;;;;;;;;;;;;;;;27.01;42.75;97651.81;4994186;28;1657;-51
2021/08/11 03:17:14;;;;;;;;;;;;;;;26.79;43.25;97652.78;5068754;28;965;-51
2021/08/11 03:19:40;;;;;;;;;;;;;;;26.75;43.51;97647.84;5069754;28;1271;-51
2021/08/11 03:22:06;;;;;;;;;;;;;;;26.76;43.33;97645.06;5068713;28;1199;-52
2021/08/11 03:24:31;;;;;;;;;;;;;;;26.70;43.28;97648.22;5059764;28;1613;-51
2021/08/11 03:26:56;;;;;;;;;;;;;;;26.74;43.27;97638.22;5068716;28;1965;-51
2021/08/11 03:29:21;;;;;;;;;;;;;;;26.70;43.29;97640.28;5069542;28;1517;-52
2021/08/11 03:31:46;;;;;;;;;;;;;;;26.67;43.29;97636.09;5069891;28;1298;-51
2021/08/11 03:34:12;;;;;;;;;;;;;;;26.63;43.33;97636.47;5068820;28;1115;-51
2021/08/11 03:36:37;;;;;;;;;;;;;;;26.63;43.56;97637.31;5067176;28;1607;-51
2021/08/11 03:39:02;;;;;;;;;;;;;;;26.66;43.18;97642.34;5070287;28;1265;-52
2021/08/11 03:41:27;;;;;;;;;;;;;;;26.71;43.39;97637.53;5067259;28;1520;-52
2021/08/11 03:43:53;;;;;;;;;;;;;;;26.63;43.62;97639.13;5069054;28;1233;-51
2021/08/11 03:46:18;;;;;;;;;;;;;;;26.58;43.43;97638.66;5068623;28;1262;-51
2021/08/11 03:48:43;;;;;;;;;;;;;;;26.67;43.17;97638.72;5068177;28;1969;-51
2021/08/11 03:51:08;;;;;;;;;;;;;;;26.67;43.19;97640.53;5068551;28;1563;-51
2021/08/11 03:53:33;;;;;;;;;;;;;;;26.80;43.01;97640.38;5068979;28;1207;-51
2021/08/11 03:55:59;;;;;;;;;;;;;;;26.76;43.32;97646.88;5070060;28;1191;-51
2021/08/11 03:58:24;;;;;;;;;;;;;;;26.81;43.11;97644.69;5065086;28;1736;-52
2021/08/11 04:00:49;;;;;;;;;;;;;;;26.74;43.11;97648.81;5068954;28;1357;-51
2021/08/11 04:03:14;;;;;;;;;;;;;;;26.69;43.16;97647.38;5066912;28;1695;-51
2021/08/11 04:05:39;;;;;;;;;;;;;;;26.79;43.11;97644.84;5068027;28;1713;-52
2021/08/11 04:08:05;;;;;;;;;;;;;;;26.81;43.00;97650.84;5067823;28;1918;-51
2021/08/11 04:10:30;;;;;;;;;;;;;;;26.73;43.22;97647.13;5068473;28;1390;-49
2021/08/11 04:12:55;;;;;;;;;;;;;;;26.74;42.96;97638.22;5066855;28;1569;-52
2021/08/11 04:15:20;;;;;;;;;;;;;;;26.72;43.21;97641.00;5069174;28;1175;-51
2021/08/11 04:17:46;;;;;;;;;;;;;;;26.70;43.15;97645.56;5069314;28;1257;-52
2021/08/11 04:20:11;;;;;;;;;;;;;;;26.68;43.14;97648.34;5072663;28;1482;-51
2021/08/11 04:22:36;;;;;;;;;;;;;;;26.67;43.23;97651.97;5073119;28;1209;-51
2021/08/11 04:25:01;;;;;;;;;;;;;;;26.66;43.61;97660.03;5072929;28;1478;-51
2021/08/11 04:27:27;;;;;;;;;;;;;;;26.73;43.06;97658.56;5070888;28;1914;-52
2021/08/11 04:29:52;;;;;;;;;;;;;;;26.70;43.46;97670.25;5071318;28;1279;-51
2021/08/11 04:32:17;;;;;;;;;;;;;;;26.64;43.70;97667.25;5072261;28;1509;-51
2021/08/11 04:34:43;;;;;;;;;;;;;;;26.66;43.23;97663.50;5071687;28;1588;-51
2021/08/11 04:37:08;;;;;;;;;;;;;;;26.78;42.96;97672.25;5062750;28;1116;-51
2021/08/11 04:39:33;;;;;;;;;;;;;;;26.82;42.94;97678.97;5072567;28;1457;-51
2021/08/11 04:41:58;;;;;;;;;;;;;;;26.71;43.10;97668.44;5072205;28;1655;-51
2021/08/11 04:44:23;;;;;;;;;;;;;;;26.71;43.23;97671.91;5072811;28;1108;-51
2021/08/11 04:46:49;;;;;;;;;;;;;;;26.63;43.31;97678.81;5073144;28;1202;-51
2021/08/11 04:49:14;;;;;;;;;;;;;;;26.69;43.21;97675.63;5070915;28;1910;-50
2021/08/11 04:51:39;;;;;;;;;;;;;;;26.67;43.30;97674.94;5073503;28;1688;-51
2021/08/11 04:54:04;;;;;;;;;;;;;;;26.68;43.56;97676.59;5071744;28;1183;-51
2021/08/11 04:56:29;;;;;;;;;;;;;;;26.70;43.08;97672.88;5069964;28;1587;-51
2021/08/11 04:58:55;;;;;;;;;;;;;;;26.61;43.40;97678.91;5072470;28;1663;-51
2021/08/11 05:01:20;;;;;;;;;;;;;;;26.66;43.49;97676.72;5070198;28;1604;-52
2021/08/11 05:03:45;;;;;;;;;;;;;;;26.76;42.98;97684.75;5071456;28;1143;-52
2021/08/11 05:06:10;;;;;;;;;;;;;;;26.80;42.83;97686.19;5072021;28;1175;-51
2021/08/11 05:08:36;;;;;;;;;;;;;;;26.81;43.01;97679.09;5071869;28;1955;-51
2021/08/11 05:11:01;;;;;;;;;;;;;;;26.68;43.25;97677.44;5067453;28;1351;-51
2021/08/11 05:13:27;;;;;;;;;;;;;;;26.71;43.28;97677.22;5071596;28;1794;-51
2021/08/11 05:15:52;;;;;;;;;;;;;;;26.75;43.15;97672.50;5068387;28;1560;-51
2021/08/11 05:18:17;;;;;;;;;;;;;;;26.74;43.01;97677.91;5072374;28;1254;-51
2021/08/11 05:20:43;;;;;;;;;;;;;;;26.63;43.36;97677.00;5071279;28;1818;-51
2021/08/11 05:23:08;;;;;;;;;;;;;;;26.64;43.75;97685.78;5072082;28;1213;-51
2021/08/11 05:25:33;;;;;;;;;;;;;;;26.57;43.42;97685.41;5070357;28;1528;-51
2021/08/11 05:27:58;;;;;;;;;;;;;;;26.70;43.06;97690.53;5070702;28;1898;-51
2021/08/11 05:30:24;;;;;;;;;;;;;;;26.72;43.07;97686.00;5069464;28;1370;-50
2021/08/11 05:32:49;;;;;;;;;;;;;;;26.69;43.28;97686.22;5071174;28;1045;-52
2021/08/11 05:35:14;;;;;;;;;;;;;;;26.74;43.04;97684.03;5071199;28;1136;-52
2021/08/11 05:37:40;;;;;;;;;;;;;;;26.71;43.17;97687.78;5069906;28;1524;-51
2021/08/11 05:40:05;;;;;;;;;;;;;;;26.74;43.05;97691.97;5071645;28;1252;-51
2021/08/11 05:42:30;;;;;;;;;;;;;;;26.69;43.04;97694.16;5069683;28;1689;-51
2021/08/11 05:44:56;;;;;;;;;;;;;;;26.64;43.26;97691.06;5071614;28;1099;-51
2021/08/11 05:47:21;;;;;;;;;;;;;;;26.85;43.13;97697.22;5071472;28;1973;-51
2021/08/11 05:49:46;;;;;;;;;;;;;;;26.61;43.58;97702.72;5070665;28;1647;-52
2021/08/11 05:52:11;;;;;;;;;;;;;;;26.65;43.25;97698.03;5068986;28;1556;-52
2021/08/11 05:54:36;;;;;;;;;;;;;;;26.55;43.56;97703.22;5070677;28;1410;-51
2021/08/11 05:57:02;;;;;;;;;;;;;;;26.67;43.39;97706.66;5069217;28;1520;-51
2021/08/11 05:59:28;;;;;;;;;;;;;;;26.69;43.28;97710.03;5070093;28;1402;-51
2021/08/11 06:01:53;;;;;;;;;;;;;;;26.70;43.08;97709.94;5070514;28;1251;-51
2021/08/11 06:04:20;;;;;;;;;;;;;;;26.64;43.52;97709.56;5069093;28;1595;-51
2021/08/11 06:06:45;;;;;;;;;;;;;;;26.61;43.28;97713.28;5071378;28;1172;-51
2021/08/11 06:09:10;;;;;;;;;;;;;;;26.55;43.73;97712.97;5069720;28;1883;-51
2021/08/11 06:11:36;;;;;;;;;;;;;;;26.62;43.33;97711.47;5069872;28;1667;-51
2021/08/11 06:14:01;;;;;;;;;;;;;;;26.68;43.18;97711.00;5070496;28;1171;-51
2021/08/11 06:16:26;;;;;;;;;;;;;;;26.62;43.61;97708.84;5067493;28;1572;-51
2021/08/11 06:18:55;;;;;;;;;;;;;;;26.68;43.21;97703.06;5069820;28;1466;-52
2021/08/11 06:21:20;;;;;;;;;;;;;;;26.60;43.39;97706.31;5059414;28;1616;-51
2021/08/11 06:23:45;;;;;;;;;;;;;;;26.58;43.39;97708.25;5067183;28;1600;-50
2021/08/11 06:26:10;;;;;;;;;;;;;;;26.67;43.35;97704.03;5068517;28;1583;-51
2021/08/11 06:28:35;;;;;;;;;;;;;;;26.61;43.32;97699.22;5069793;28;1917;-51
2021/08/11 06:31:01;;;;;;;;;;;;;;;26.63;43.39;97697.31;5069650;28;1448;-51
2021/08/11 06:33:26;;;;;;;;;;;;;;;26.61;43.66;97694.78;5070833;28;1187;-51
2021/08/11 06:35:51;;;;;;;;;;;;;;;26.66;43.48;97705.84;5066974;28;1614;-51
2021/08/11 06:38:17;;;;;;;;;;;;;;;26.73;43.06;97705.34;5071006;28;1242;-51
2021/08/11 06:40:43;;;;;;;;;;;;;;;26.66;43.58;97699.69;5069645;28;1418;-51
2021/08/11 06:43:08;;;;;;;;;;;;;;;26.71;43.09;97703.66;5067788;28;1560;-51
2021/08/11 06:45:34;;;;;;;;;;;;;;;26.71;43.20;97706.31;5069361;28;1578;-52
2021/08/11 06:47:59;;;;;;;;;;;;;;;26.71;43.17;97708.97;5070105;28;1926;-51
2021/08/11 06:50:25;;;;;;;;;;;;;;;26.68;43.18;97701.25;5069303;28;1353;-51
2021/08/11 06:52:50;;;;;;;;;;;;;;;26.78;43.11;97706.66;5069217;28;1273;-51
2021/08/11 06:55:16;;;;;;;;;;;;;;;26.60;43.48;97711.63;5066885;28;1571;-51
2021/08/11 06:57:41;;;;;;;;;;;;;;;26.61;43.40;97713.28;5068996;28;1561;-51
2021/08/11 07:00:07;;;;;;;;;;;;;;;26.65;43.61;97708.59;5070312;28;1366;-51
2021/08/11 07:02:32;;;;;;;;;;;;;;;26.54;43.54;97713.91;5067458;28;1300;-51
2021/08/11 07:04:58;;;;;;;;;;;;;;;26.55;43.74;97720.91;5070232;28;1643;-50
2021/08/11 07:07:23;;;;;;;;;;;;;;;26.55;43.73;97719.09;5069642;28;1918;-51
2021/08/11 07:09:48;;;;;;;;;;;;;;;26.59;43.76;97720.50;5069847;28;1362;-51
2021/08/11 07:12:13;;;;;;;;;;;;;;;26.67;43.34;97718.09;5068396;28;1523;-51
2021/08/11 07:14:39;;;;;;;;;;;;;;;26.67;43.55;97725.19;5070086;28;1179;-51
2021/08/11 07:17:04;;;;;;;;;;;;;;;26.83;42.79;97722.97;5068701;28;1418;-51
2021/08/11 07:19:29;;;;;;;;;;;;;;;26.73;43.17;97727.34;5069621;28;1283;-51
2021/08/11 07:21:54;;;;;;;;;;;;;;;26.62;43.45;97722.94;5068406;28;1663;-50
2021/08/11 07:24:20;;;;;;;;;;;;;;;27.61;41.10;97716.53;5069759;28;1108;-54
2021/08/11 07:26:45;;;;;;;;;;;;;;;27.48;41.70;97713.22;5068794;28;1655;-53
2021/08/11 07:29:10;;;;;;;;;;;;;;;27.53;41.50;97713.69;5067960;28;1961;-53
2021/08/11 07:31:35;;;;;;;;;;;;;;;27.48;41.72;97714.06;5069978;28;1559;-53
2021/08/11 07:34:00;;;;;;;;;;;;;;;27.55;41.49;97711.75;5068852;28;1132;-54
2021/08/11 07:36:26;;;;;;;;;;;;;;;27.43;41.64;97716.28;5068478;28;1529;-53
2021/08/11 07:38:51;;;;;;;;;;;;;;;27.56;41.20;97713.41;5069869;28;1048;-54
2021/08/11 07:41:16;;;;;;;;;;;;;;;27.44;41.62;97717.97;5066011;28;1549;-53
2021/08/11 07:43:41;;;;;;;;;;;;;;;27.44;41.47;97717.97;5069004;28;1200;-52
2021/08/11 07:46:07;;;;;;;;;;;;;;;27.50;41.58;97722.75;5068391;28;1349;-52
2021/08/11 07:48:32;;;;;;;;;;;;;;;27.55;41.36;97711.75;5069734;28;1906;-52
2021/08/11 07:50:57;;;;;;;;;;;;;;;27.48;41.57;97718.53;5066558;28;1654;-52
2021/08/11 07:53:22;;;;;;;;;;;;;;;27.48;41.59;97716.72;5069426;28;1009;-51
2021/08/11 07:55:47;;;;;;;;;;;;;;;27.47;41.44;97720.34;5067189;28;1635;-52
2021/08/11 07:58:12;;;;;;;;;;;;;;;27.40;41.56;97721.81;5067336;28;1603;-52
2021/08/11 08:00:38;;;;;;;;;;;;;;;27.42;41.58;97717.25;5068645;28;1414;-52
2021/08/11 08:03:03;;;;;;;;;;;;;;;27.45;41.46;97711.69;5069495;28;1135;-51
2021/08/11 08:05:28;;;;;;;;;;;;;;;27.47;41.41;97715.03;5066870;28;1615;-51
2021/08/11 08:07:54;;;;;;;;;;;;;;;27.58;41.25;97721.25;5069517;28;1969;-52
2021/08/11 08:10:19;;;;;;;;;;;;;;;27.37;41.81;97714.13;5068863;28;1768;-52
2021/08/11 08:12:44;;;;;;;;;;;;;;;27.57;41.32;97720.44;5067317;28;1579;-51
2021/08/11 08:15:10;;;;;;;;;;;;;;;27.55;41.32;97715.22;5069286;28;1238;-52
2021/08/11 08:17:35;;;;;;;;;;;;;;;27.52;41.20;97712.00;5068262;28;1315;-52
2021/08/11 08:20:00;;;;;;;;;;;;;;;27.48;41.56;97718.53;5068529;28;1272;-51
2021/08/11 08:22:26;;;;;;;;;;;;;;;27.54;41.47;97715.38;5062488;28;1600;-51
2021/08/11 08:24:54;;;;;;;;;;;;;;;27.49;41.50;97722.84;5069507;28;1039;-52
2021/08/11 08:27:20;;;;;;;;;;;;;;;27.45;41.57;97714.34;5065481;28;1910;-52
2021/08/11 08:29:45;;;;;;;;;;;;;;;27.48;41.56;97716.72;5067587;28;1819;-52
2021/08/11 08:32:11;;;;;;;;;;;;;;;27.54;41.45;97721.50;5068228;28;1493;-50
2021/08/11 08:34:36;;;;;;;;;;;;;;;27.73;41.14;97709.41;5064815;28;1202;-50
2021/08/11 08:37:01;;;;;;;;;;;;;;;27.84;40.58;97714.63;5066846;28;1288;-55
2021/08/11 08:39:27;;;;;;;;;;;;;;;28.29;39.94;97719.56;5066762;28;1639;-54
2021/08/11 08:41:53;;;;;;;;;;;;;;;28.50;39.27;97717.69;5066500;28;1592;-53
2021/08/11 08:44:18;;;;;;;;;;;;;;;28.16;40.14;97716.28;5064627;28;1608;-52
2021/08/11 08:46:43;;;;;;;;;;;;;;;28.18;40.49;97719.66;5067904;28;1112;-54
2021/08/11 08:49:14;;;;;;;;;;;;;;;28.23;40.43;97707.69;5057580;28;1905;-52
2021/08/11 08:51:42;;;;;;;;;;;;;;;27.89;40.92;97715.06;5066107;28;1125;-52
2021/08/11 08:54:07;;;;;;;;;;;;;;;27.87;40.77;97721.44;5066243;28;1592;-51
2021/08/11 08:56:33;;;;;;;;;;;;;;;27.83;40.86;97714.75;5062977;28;1512;-51
2021/08/11 08:58:58;;;;;;;;;;;;;;;27.93;40.80;97718.28;5067389;28;1233;-52
2021/08/11 09:01:23;;;;;;;;;;;;;;;28.04;40.58;97712.88;5054758;28;1546;-52
2021/08/11 09:03:48;;;;;;;;;;;;;;;28.12;40.39;97705.09;5066913;28;1282;-54
2021/08/11 09:06:13;;;;;;;;;;;;;;;28.25;40.38;97705.72;5059040;28;1665;-53
2021/08/11 09:08:54;;;;;;;;;;;;;;;28.25;40.26;97708.38;5071887;28;1894;-52
2021/08/11 09:11:19;;;;;;;;;;;;;;;28.19;40.45;97708.91;5069419;28;1626;-55
2021/08/11 09:13:44;;;;;;;;;;;;;;;28.30;39.88;97706.19;5070802;28;1124;-54
2021/08/11 09:16:11;;;;;;;;;;;;;;;28.26;40.38;97711.88;5069468;28;1502;-54
2021/08/11 09:18:36;;;;;;;;;;;;;;;28.25;40.19;97707.53;5071163;28;1231;-54
2021/08/11 09:21:09;;;;;;;;;;;;;;;28.22;40.30;97702.50;5069313;28;1729;-54
2021/08/11 09:23:34;;;;;;;;;;;;;;;28.24;40.35;97709.34;5070591;28;1275;-54
2021/08/11 09:26:00;;;;;;;;;;;;;;;28.04;40.63;97711.09;5070862;28;1104;-54
2021/08/11 09:28:26;;;;;;;;;;;;;;;27.97;40.87;97702.00;5069345;28;1965;-54
2021/08/11 09:30:51;;;;;;;;;;;;;;;28.11;40.76;97703.44;5069286;28;1362;-54
2021/08/11 09:33:20;;;;;;;;;;;;;;;28.23;40.10;97699.72;5070139;28;1323;-54
2021/08/11 09:35:45;;;;;;;;;;;;;;;28.33;40.06;97697.13;5069183;28;1659;-54
2021/08/11 09:38:11;;;;;;;;;;;;;;;28.50;39.76;97704.44;5070863;28;1163;-54
2021/08/11 09:40:37;;;;;;;;;;;;;;;28.29;40.18;97698.34;5069705;28;1303;-55
2021/08/11 09:43:03;;;;;;;;;;;;;;;28.09;40.56;97695.59;5059805;28;1629;-53
2021/08/11 09:45:49;;;;;;;;;;;;;;;28.28;40.25;97688.69;5069123;28;1339;-54
2021/08/11 09:48:18;;;;;;;;;;;;;;;28.31;40.29;97686.66;5069175;28;1906;-52
2021/08/11 09:50:47;;;;;;;;;;;;;;;28.52;40.02;97697.19;5066441;28;1584;-55
2021/08/11 09:53:16;;;;;;;;;;;;;;;28.28;40.35;97697.50;5069994;28;1215;-55
2021/08/11 09:55:54;;;;;;;;;;;;;;;28.22;40.86;97692.75;5070037;28;1437;-54
2021/08/11 09:58:20;;;;;;;;;;;;;;;28.24;40.65;97693.44;5070008;28;1654;-59
2021/08/11 10:00:45;;;;;;;;;;;;;;;28.39;39.94;97696.59;5058776;28;1267;-58
2021/08/11 10:03:10;;;;;;;;;;;;;;;28.20;40.77;97696.47;5070191;28;1136;-59
2021/08/11 10:05:36;;;;;;;;;;;;;;;28.10;40.80;97691.16;5059997;28;1692;-60
2021/08/11 10:08:01;;;;;;;;;;;;;;;28.13;40.52;97690.06;5068646;28;1910;-60
2021/08/11 10:10:26;;;;;;;;;;;;;;;28.05;41.09;97690.72;5060442;28;1333;-61
2021/08/11 10:12:52;;;;;;;;;;;;;;;28.10;40.92;97696.44;5068024;28;1588;-59
2021/08/11 10:15:18;;;;;;;;;;;;;;;28.07;40.88;97707.34;5069327;28;1363;-60
2021/08/11 10:17:43;;;;;;;;;;;;;;;28.08;41.07;97695.75;5068690;28;1386;-59
2021/08/11 10:20:08;;;;;;;;;;;;;;;28.10;40.88;97691.16;5070227;28;1633;-59
2021/08/11 10:22:33;;;;;;;;;;;;;;;28.11;40.66;97690.16;5068082;28;1604;-60
2021/08/11 10:24:59;;;;;;;;;;;;;;;28.10;40.91;97694.63;5058776;28;1360;-60
2021/08/11 10:27:24;;;;;;;;;;;;;;;28.07;41.19;97688.78;5067915;28;1906;-59
2021/08/11 10:29:50;;;;;;;;;;;;;;;28.10;40.82;97694.63;5069395;28;1330;-60
2021/08/11 10:32:16;;;;;;;;;;;;;;;28.49;40.29;97694.78;5067740;28;1371;-55
2021/08/11 10:34:42;;;;;;;;;;;;;;;27.90;41.63;97689.41;5065620;28;1848;-51
2021/08/11 10:37:07;;;;;;;;;;;;;;;27.92;41.40;97696.25;5061243;28;1902;-51
2021/08/11 10:39:33;;;;;;;;;;;;;;;27.93;41.70;97692.63;5056172;28;1294;-52
2021/08/11 10:42:01;;;;;;;;;;;;;;;28.04;41.42;97687.25;5067670;28;1584;-52
2021/08/11 10:44:26;;;;;;;;;;;;;;;28.10;41.02;97684.03;5068423;28;1339;-52
2021/08/11 10:46:56;;;;;;;;;;;;;;;28.13;40.88;97693.56;5058230;28;1131;-52
2021/08/11 10:49:22;;;;;;;;;;;;;;;28.15;40.90;97690.75;5058279;28;1938;-52
2021/08/11 10:51:47;;;;;;;;;;;;;;;28.18;40.79;97693.13;5057637;28;1525;-52
2021/08/11 10:54:13;;;;;;;;;;;;;;;28.05;41.07;97691.56;5069306;28;1261;-53
2021/08/11 10:56:41;;;;;;;;;;;;;;;28.16;40.88;97697.72;5064857;28;1540;-52
2021/08/11 10:59:06;;;;;;;;;;;;;;;28.12;40.69;97698.97;5068929;28;1466;-52
2021/08/11 11:01:33;;;;;;;;;;;;;;;28.19;40.68;97697.47;5058262;28;1312;-53
2021/08/11 11:03:58;;;;;;;;;;;;;;;28.15;40.77;97699.56;5067065;28;2095;-51
2021/08/11 11:06:23;;;;;;;;;;;;;;;28.21;40.49;97695.53;5069424;28;1192;-52
2021/08/11 11:08:51;;;;;;;;;;;;;;;28.22;40.82;97695.41;5068752;28;1973;-53
2021/08/11 11:11:28;;;;;;;;;;;;;;;28.19;40.56;97703.59;5057808;28;1533;-52
2021/08/11 11:13:53;;;;;;;;;;;;;;;28.14;40.76;97695.22;5068619;28;1160;-52
2021/08/11 11:16:20;;;;;;;;;;;;;;;28.16;40.62;97701.22;5067756;28;1442;-53
2021/08/11 11:19:04;;;;;;;;;;;;;;;28.17;40.66;97688.81;5057584;28;1464;-52
2021/08/11 11:21:29;;;;;;;;;;;;;;;28.14;40.50;97691.75;5065054;28;1572;-52
2021/08/11 11:23:54;;;;;;;;;;;;;;;28.27;40.27;97692.31;5066944;28;1417;-52
2021/08/11 11:26:35;;;;;;;;;;;;;;;28.19;40.57;97689.50;5068444;28;1647;-51
2021/08/11 11:29:06;;;;;;;;;;;;;;;28.14;40.51;97692.56;5066389;28;1905;-52
2021/08/11 11:31:37;;;;;;;;;;;;;;;28.26;40.41;97694.13;5068489;28;1193;-52
2021/08/11 11:34:18;;;;;;;;;;;;;;;28.22;40.48;97690.09;5065970;28;1544;-53
2021/08/11 11:36:43;;;;;;;;;;;;;;;28.30;40.37;97694.75;5066456;28;1354;-52
2021/08/11 11:39:09;;;;;;;;;;;;;;;28.05;40.67;97686.25;5067073;28;1549;-52
2021/08/11 11:41:34;;;;;;;;;;;;;;;28.59;39.92;97687.69;5065768;28;1792;-53
2021/08/11 11:44:18;;;;;;;;;;;;;;;28.74;39.58;97697.91;5067958;28;1144;-53
2021/08/11 11:46:47;;;;;;;;;;;;;;;28.23;40.89;97686.47;5067715;28;1498;-53
2021/08/11 11:49:15;;;;;;;;;;;;;;;28.56;40.15;97693.28;5068306;28;1918;-54
2021/08/11 11:51:40;;;;;;;;;;;;;;;28.39;40.40;97690.44;5065896;28;1608;-52
2021/08/11 11:54:05;;;;;;;;;;;;;;;28.20;40.65;97684.09;5058296;28;1356;-51
2021/08/11 11:56:32;;;;;;;;;;;;;;;28.22;41.29;97686.59;5057680;28;1592;-53
2021/08/11 11:58:57;;;;;;;;;;;;;;;28.28;40.66;97680.72;5055541;28;1374;-53
2021/08/11 12:01:22;;;;;;;;;;;;;;;28.04;41.18;97689.03;5059219;28;1522;-55
2021/08/11 12:03:51;;;;;;;;;;;;;;;28.14;40.84;97691.75;5067432;28;1260;-54
2021/08/11 12:06:31;;;;;;;;;;;;;;;28.42;40.54;97696.31;5065226;28;1513;-52
2021/08/11 12:08:57;;;;;;;;;;;;;;;28.68;40.41;97688.72;5064386;28;1977;-51
2021/08/11 12:11:24;;;;;;;;;;;;;;;30.19;36.75;97687.19;5066302;28;1690;-52
2021/08/11 12:13:54;;;;;;;;;;;;;;;29.58;38.09;97691.13;5057279;28;1123;-51
2021/08/11 12:16:20;;;;;;;;;;;;;;;28.88;39.27;97687.72;5066877;28;1414;-49
2021/08/11 12:18:47;;;;;;;;;;;;;;;28.49;40.25;97684.19;5067373;28;1286;-49
2021/08/11 12:21:12;;;;;;;;;;;;;;;28.62;39.82;97679.47;5065167;28;1551;-50
2021/08/11 12:23:38;;;;;;;;;;;;;;;28.67;39.31;97673.72;5067838;28;1206;-50
2021/08/11 12:26:04;;;;;;;;;;;;;;;28.47;40.09;97680.00;5064580;28;1248;-49
2021/08/11 12:28:48;;;;;;;;;;;;;;;28.51;39.92;97670.78;5066358;28;1906;-53
2021/08/11 12:31:24;;;;;;;;;;;;;;;28.23;40.42;97667.91;5067594;28;1244;-53
2021/08/11 12:33:50;;;;;;;;;;;;;;;28.09;40.72;97671.75;5072330;28;1024;-53
2021/08/11 12:36:21;;;;;;;;;;;;;;;28.24;40.39;97663.44;5054811;28;1613;-53
2021/08/11 12:38:58;;;;;;;;;;;;;;;28.22;40.57;97668.03;5068066;28;1147;-52
2021/08/11 12:41:23;;;;;;;;;;;;;;;28.25;40.59;97668.59;5066029;28;1529;-52
2021/08/11 12:43:50;;;;;;;;;;;;;;;28.24;40.47;97661.63;5070906;28;1069;-53
2021/08/11 12:46:15;;;;;;;;;;;;;;;28.24;40.59;97661.63;5069830;28;1104;-53
2021/08/11 12:48:40;;;;;;;;;;;;;;;28.22;40.34;97657.44;5071202;28;1921;-53
2021/08/11 12:51:06;;;;;;;;;;;;;;;28.22;40.30;97660.09;5069405;28;1521;-53
2021/08/11 12:53:32;;;;;;;;;;;;;;;28.02;40.75;97656.50;5069863;28;1195;-54